Time;durP1;ratioP1;P1;durP2;ratioP2;P2;SDS_P1;SDS_P2;PMS_P1;PMS_P2;Temp;Humidity;BMP_temperature;BMP_pressure;BME280_temperature;BME280_humidity;BME280_pressure;Samples;Min_cycle;Max_cycle;Signal;HPM_P1;HPM_P2
2022/07/15 00:00:58;;;;;;;8.25;5.05;;;;;;;20.90;98.99;100695.83;1741804;82;21074;-81
2022/07/15 00:03:25;;;;;;;10.48;4.85;;;;;;;20.76;99.83;100697.02;1748530;82;21107;-80
2022/07/15 00:05:52;;;;;;;8.28;5.20;;;;;;;22.11;96.30;100696.25;1744141;82;21563;-81
2022/07/15 00:08:20;;;;;;;8.45;5.20;;;;;;;22.43;89.85;100699.60;1746909;82;21063;-79
2022/07/15 00:10:47;;;;;;;9.18;4.53;;;;;;;22.32;89.36;100696.62;1747147;82;21003;-80
2022/07/15 00:13:14;;;;;;;8.18;5.20;;;;;;;20.99;93.85;100697.69;1742895;82;20995;-81
2022/07/15 00:15:42;;;;;;;8.58;5.33;;;;;;;20.69;98.55;100695.86;1747527;81;21047;-80
2022/07/15 00:18:11;;;;;;;7.70;5.37;;;;;;;21.76;97.51;100689.75;1743445;81;21028;-80
2022/07/15 00:20:38;;;;;;;9.60;5.12;;;;;;;21.04;95.67;100699.08;1749143;81;21025;-80
2022/07/15 00:23:07;;;;;;;8.95;5.60;;;;;;;20.69;98.84;100700.28;1745224;81;21014;-79
2022/07/15 00:25:36;;;;;;;13.20;5.67;;;;;;;20.84;97.90;100694.22;1746413;81;21082;-80
2022/07/15 00:28:08;;;;;;;10.20;5.92;;;;;;;20.85;98.64;100698.52;1746757;81;21030;-81
2022/07/15 00:30:40;;;;;;;8.35;6.12;;;;;;;20.73;98.93;100686.80;1744072;81;21464;-81
2022/07/15 00:33:08;;;;;;;9.43;6.03;;;;;;;20.67;99.39;100693.04;1741771;81;21038;-80
2022/07/15 00:35:37;;;;;;;11.38;7.08;;;;;;;20.68;99.69;100694.68;1744069;82;21075;-80
2022/07/15 00:38:10;;;;;;;8.40;5.20;;;;;;;20.56;99.83;100692.12;1743793;82;21011;-79
2022/07/15 00:40:44;;;;;;;6.97;4.95;;;;;;;20.51;100.00;100693.45;1746378;81;21054;-80
2022/07/15 00:43:12;;;;;;;6.70;5.15;;;;;;;20.50;100.00;100695.70;1743425;81;21344;-81
2022/07/15 00:45:39;;;;;;;7.50;4.80;;;;;;;20.50;100.00;100695.24;1746192;81;21086;-81
2022/07/15 00:48:07;;;;;;;8.90;5.03;;;;;;;22.05;92.79;100686.32;1745144;81;21044;-81
2022/07/15 00:50:34;;;;;;;7.97;5.60;;;;;;;20.61;97.87;100694.37;1745979;81;21056;-80
2022/07/15 00:53:12;;;;;;;15.10;6.50;;;;;;;20.43;99.23;100688.84;1747126;81;21054;-81
2022/07/15 00:55:44;;;;;;;8.83;5.80;;;;;;;20.31;100.00;100688.55;1747310;81;21124;-81
2022/07/15 00:58:16;;;;;;;10.28;5.45;;;;;;;20.32;100.00;100694.15;1745678;82;21598;-81
2022/07/15 01:00:45;;;;;;;8.20;5.20;;;;;;;20.30;100.00;100691.66;1742705;82;20991;-81
2022/07/15 01:03:16;;;;;;;10.00;5.37;;;;;;;20.32;100.00;100688.92;1726209;81;21095;-79
2022/07/15 01:05:48;;;;;;;7.72;5.95;;;;;;;20.31;100.00;100688.07;1744269;82;21148;-80
2022/07/15 01:08:20;;;;;;;9.70;6.35;;;;;;;20.28;100.00;100690.12;1743931;81;21074;-79
2022/07/15 01:10:49;;;;;;;11.18;6.40;;;;;;;20.20;100.00;100691.58;1740748;81;21054;-80
2022/07/15 01:13:19;;;;;;;8.00;5.47;;;;;;;20.16;100.00;100680.20;1744101;81;21023;-81
2022/07/15 01:15:48;;;;;;;7.62;5.08;;;;;;;20.13;100.00;100686.52;1743548;82;21523;-81
2022/07/15 01:18:16;;;;;;;10.88;5.40;;;;;;;20.18;100.00;100682.20;1744885;81;21495;-75
2022/07/15 01:20:47;;;;;;;7.95;5.12;;;;;;;20.09;100.00;100678.54;1748578;82;21523;-80
2022/07/15 01:23:16;;;;;;;8.63;5.20;;;;;;;19.93;100.00;100682.90;1739585;82;21059;-81
2022/07/15 01:25:45;;;;;;;12.78;5.97;;;;;;;19.83;100.00;100677.21;1723173;81;21555;-81
2022/07/15 01:28:14;;;;;;;9.33;5.83;;;;;;;19.88;100.00;100680.30;1744132;82;21036;-81
2022/07/15 01:30:42;;;;;;;10.48;5.67;;;;;;;19.74;100.00;100676.17;1746431;82;21524;-80
2022/07/15 01:33:11;;;;;;;9.45;5.97;;;;;;;19.70;100.00;100676.03;1745802;81;21026;-81
2022/07/15 01:35:38;;;;;;;9.08;5.70;;;;;;;19.62;100.00;100676.64;1746996;82;21007;-81
2022/07/15 01:38:06;;;;;;;9.75;5.35;;;;;;;19.63;100.00;100680.93;1746983;82;21105;-81
2022/07/15 01:40:34;;;;;;;11.05;6.10;;;;;;;19.50;100.00;100677.62;1747730;82;21495;-81
2022/07/15 01:43:03;;;;;;;10.35;5.72;;;;;;;19.64;100.00;100683.05;1746096;81;21058;-80
2022/07/15 01:45:31;;;;;;;8.93;5.78;;;;;;;19.76;100.00;100675.58;1750703;81;21161;-80
2022/07/15 01:47:59;;;;;;;7.72;5.85;;;;;;;19.38;100.00;100680.71;1744655;81;21039;-80
2022/07/15 01:50:37;;;;;;;12.37;5.72;;;;;;;19.51;100.00;100679.29;1743565;82;21055;-82
2022/07/15 01:53:06;;;;;;;11.38;5.60;;;;;;;19.53;100.00;100676.09;1746357;81;21063;-80
2022/07/15 01:55:34;;;;;;;10.05;5.85;;;;;;;19.60;100.00;100677.23;1746273;81;21019;-81
2022/07/15 01:58:03;;;;;;;12.25;5.87;;;;;;;19.77;100.00;100675.46;1727959;81;21487;-80
2022/07/15 02:00:31;;;;;;;11.40;6.87;;;;;;;19.67;100.00;100677.58;1741806;81;21008;-81
2022/07/15 02:02:58;;;;;;;12.20;6.37;;;;;;;19.77;100.00;100671.55;1744707;82;21091;-80
2022/07/15 02:05:26;;;;;;;12.68;6.55;;;;;;;19.74;100.00;100669.64;1745279;82;21034;-81
2022/07/15 02:07:55;;;;;;;14.90;7.03;;;;;;;19.86;100.00;100673.06;1752736;81;21523;-80
2022/07/15 02:10:23;;;;;;;10.68;6.37;;;;;;;19.73;100.00;100670.61;1746755;81;21121;-81
2022/07/15 02:12:52;;;;;;;12.68;6.67;;;;;;;19.53;100.00;100674.78;1744921;81;21007;-80
2022/07/15 02:15:21;;;;;;;12.20;6.50;;;;;;;19.72;100.00;100669.77;1742615;81;21047;-80
2022/07/15 02:17:51;;;;;;;12.07;6.70;;;;;;;19.82;100.00;100668.55;1737969;81;21020;-80
2022/07/15 02:20:18;;;;;;;12.40;7.20;;;;;;;19.97;100.00;100671.25;1746077;81;21087;-80
2022/07/15 02:22:46;;;;;;;11.35;6.97;;;;;;;19.90;100.00;100674.47;1744450;82;21011;-81
2022/07/15 02:25:14;;;;;;;12.03;6.08;;;;;;;19.72;99.89;100666.33;1747956;82;21027;-80
2022/07/15 02:27:43;;;;;;;11.18;6.47;;;;;;;19.69;100.00;100667.83;1749253;81;21139;-80
2022/07/15 02:30:12;;;;;;;9.83;7.28;;;;;;;19.56;100.00;100667.98;1719344;82;21067;-80
2022/07/15 02:32:40;;;;;;;11.22;7.08;;;;;;;19.60;100.00;100670.23;1738557;81;20989;-81
2022/07/15 02:35:09;;;;;;;13.70;7.12;;;;;;;21.10;97.72;100657.98;1741968;82;21094;-81
2022/07/15 02:37:36;;;;;;;9.60;7.10;;;;;;;21.50;90.89;100667.65;1746757;82;21499;-80
2022/07/15 02:40:04;;;;;;;9.48;6.75;;;;;;;21.72;89.29;100660.03;1754044;81;20995;-81
2022/07/15 02:42:31;;;;;;;10.82;7.20;;;;;;;20.03;94.58;100664.67;1745735;81;21531;-79
2022/07/15 02:45:00;;;;;;;11.55;7.10;;;;;;;20.29;100.00;100661.71;1723358;82;20995;-81
2022/07/15 02:47:27;;;;;;;13.58;7.42;;;;;;;19.65;100.00;100671.64;1744085;82;21118;-81
2022/07/15 02:49:56;;;;;;;10.32;6.75;;;;;;;20.32;100.00;100669.31;1746974;82;20992;-80
2022/07/15 02:52:23;;;;;;;13.88;6.78;;;;;;;19.67;100.00;100677.13;1745359;81;21050;-81
2022/07/15 02:54:51;;;;;;;13.45;7.12;;;;;;;19.60;100.00;100671.53;1745666;82;21059;-82
2022/07/15 02:57:19;;;;;;;13.03;6.65;;;;;;;20.93;99.64;100674.66;1725851;82;20999;-81
2022/07/15 02:59:47;;;;;;;12.75;6.78;;;;;;;20.28;98.45;100678.37;1748400;82;21019;-81
2022/07/15 03:02:15;;;;;;;11.78;6.45;;;;;;;20.13;100.00;100674.75;1747390;82;21026;-81
2022/07/15 03:04:43;;;;;;;9.85;6.20;;;;;;;20.16;100.00;100677.59;1746881;81;21039;-81
2022/07/15 03:07:11;;;;;;;7.90;6.15;;;;;;;20.17;100.00;100676.16;1744666;81;21066;-81
2022/07/15 03:09:40;;;;;;;10.13;6.70;;;;;;;20.22;100.00;100679.69;1746833;82;21112;-81
2022/07/15 03:12:07;;;;;;;12.45;6.75;;;;;;;20.29;100.00;100686.06;1748883;81;21078;-80
2022/07/15 03:14:35;;;;;;;10.68;6.30;;;;;;;20.42;99.94;100691.13;1749042;81;21015;-81
2022/07/15 03:17:02;;;;;;;8.58;6.20;;;;;;;20.50;100.00;100693.08;1753825;81;21062;-81
2022/07/15 03:19:30;;;;;;;8.83;6.62;;;;;;;20.66;99.79;100694.83;1752897;82;21097;-79
2022/07/15 03:21:59;;;;;;;11.28;7.00;;;;;;;20.51;100.00;100688.22;1746409;82;21051;-81
2022/07/15 03:24:27;;;;;;;9.63;6.85;;;;;;;22.41;91.30;100689.23;1746295;82;21050;-81
2022/07/15 03:26:56;;;;;;;14.13;6.62;;;;;;;22.62;87.94;100694.30;1747819;81;21058;-81
2022/07/15 03:29:24;;;;;;;9.93;6.35;;;;;;;22.74;87.30;100690.55;1746487;81;21527;-80
2022/07/15 03:31:53;;;;;;;12.70;6.12;;;;;;;22.90;86.88;100694.37;1743085;82;21787;-80
2022/07/15 03:34:25;;;;;;;8.93;6.45;;;;;;;23.12;85.85;100693.23;1744663;81;21019;-80
2022/07/15 03:36:53;;;;;;;8.08;6.55;;;;;;;21.30;96.89;100694.23;1746491;81;21562;-79
2022/07/15 03:39:23;;;;;;;7.40;6.28;;;;;;;21.19;99.53;100692.05;1753832;81;21518;-80
2022/07/15 03:41:52;;;;;;;8.95;6.40;;;;;;;21.38;99.35;100691.28;1743582;82;21051;-81
2022/07/15 03:44:19;;;;;;;11.33;6.45;;;;;;;21.57;100.00;100693.63;1746611;81;21018;-79
2022/07/15 03:46:47;;;;;;;10.03;6.72;;;;;;;22.01;98.39;100694.12;1745343;82;21027;-81
2022/07/15 03:49:15;;;;;;;8.85;6.60;;;;;;;22.17;98.12;100685.22;1753863;82;21051;-80
2022/07/15 03:51:45;;;;;;;10.78;6.20;;;;;;;21.99;99.24;100692.11;1747377;81;21737;-80
2022/07/15 03:54:13;;;;;;;8.78;6.80;;;;;;;22.07;100.00;100688.81;1745454;81;21515;-79
2022/07/15 03:56:42;;;;;;;12.00;6.40;;;;;;;22.17;100.00;100689.15;1746703;81;21022;-79
2022/07/15 03:59:10;;;;;;;7.95;6.40;;;;;;;22.35;100.00;100694.55;1747846;81;21074;-80
2022/07/15 04:01:37;;;;;;;11.12;6.28;;;;;;;22.51;100.00;100691.86;1749888;81;21047;-79
2022/07/15 04:04:04;;;;;;;9.05;5.90;;;;;;;24.00;91.64;100697.48;1745774;81;21039;-80
2022/07/15 04:06:32;;;;;;;8.65;6.10;;;;;;;23.29;95.52;100695.06;1747561;82;21044;-80
2022/07/15 04:09:01;;;;;;;9.45;5.92;;;;;;;22.92;99.92;100695.88;1747648;81;21043;-81
2022/07/15 04:11:30;;;;;;;7.28;5.97;;;;;;;23.26;100.00;100695.87;1746449;82;20996;-80
2022/07/15 04:13:58;;;;;;;7.47;6.20;;;;;;;23.49;99.77;100693.17;1746128;81;21031;-79
2022/07/15 04:16:25;;;;;;;7.55;6.25;;;;;;;24.81;96.20;100691.20;1744344;82;21043;-80
2022/07/15 04:18:54;;;;;;;8.50;6.35;;;;;;;23.99;95.41;100691.91;1741291;82;21063;-79
2022/07/15 04:21:23;;;;;;;8.35;6.05;;;;;;;23.68;100.00;100696.64;1722754;82;21504;-81
2022/07/15 04:23:50;;;;;;;10.53;6.15;;;;;;;24.55;100.00;100687.27;1742110;82;21018;-80
2022/07/15 04:26:21;;;;;;;10.93;6.83;;;;;;;24.07;99.82;100689.34;1750971;82;21023;-80
2022/07/15 04:28:48;;;;;;;8.00;6.58;;;;;;;24.40;98.37;100694.87;1747298;81;21047;-80
2022/07/15 04:31:17;;;;;;;8.08;6.62;;;;;;;24.59;97.55;100691.23;1748164;81;21527;-81
2022/07/15 04:33:46;;;;;;;7.45;6.60;;;;;;;24.45;97.52;100691.77;1753077;82;21059;-81
2022/07/15 04:36:14;;;;;;;9.10;6.40;;;;;;;24.69;96.90;100690.64;1723514;82;21142;-81
2022/07/15 04:38:42;;;;;;;8.15;6.67;;;;;;;24.86;96.82;100691.58;1745116;80;21098;-80
2022/07/15 04:41:09;;;;;;;9.10;6.60;;;;;;;26.58;88.44;100698.59;1747531;81;22506;-81
2022/07/15 04:43:37;;;;;;;7.80;6.40;;;;;;;25.44;91.78;100693.98;1748574;81;21066;-80
2022/07/15 04:46:05;;;;;;;8.50;6.65;;;;;;;25.47;91.61;100698.13;1745726;81;21035;-80
2022/07/15 04:51:12;;;;;;;8.80;6.22;;;;;;;25.84;90.80;100699.52;1688421;85;21031;-79
2022/07/15 04:53:39;;;;;;;8.93;6.17;;;;;;;25.87;90.20;100702.66;1742231;81;21519;-79
2022/07/15 04:56:08;;;;;;;9.35;7.05;;;;;;;25.84;91.53;100702.98;1741829;81;21010;-80
2022/07/15 04:58:36;;;;;;;8.78;6.62;;;;;;;25.94;91.06;100702.36;1733347;81;20999;-80
2022/07/15 05:01:05;;;;;;;9.65;6.72;;;;;;;26.21;90.74;100706.17;1712520;82;21022;-81
2022/07/15 05:03:34;;;;;;;8.75;7.17;;;;;;;26.33;91.26;100704.84;1735458;81;21063;-79
2022/07/15 05:06:03;;;;;;;7.87;6.42;;;;;;;26.32;90.20;100708.48;1740228;81;21015;-80
2022/07/15 05:08:34;;;;;;;9.03;7.10;;;;;;;26.44;89.86;100701.87;1744173;81;21007;-80
2022/07/15 05:11:01;;;;;;;11.50;7.22;;;;;;;27.96;83.80;100703.95;1745002;81;21072;-80
2022/07/15 05:13:29;;;;;;;8.48;7.45;;;;;;;28.16;80.75;100709.59;1741937;81;21055;-80
2022/07/15 05:15:58;;;;;;;8.48;7.17;;;;;;;28.48;79.75;100711.64;1735503;81;20980;-81
2022/07/15 05:18:27;;;;;;;11.50;6.70;;;;;;;28.71;78.34;100711.59;1732308;81;21059;-80
2022/07/15 05:20:57;;;;;;;8.65;7.12;;;;;;;28.99;77.10;100714.95;1744710;81;21385;-79
2022/07/15 05:23:28;;;;;;;9.13;6.62;;;;;;;29.25;75.60;100713.98;1738807;81;21491;-81
2022/07/15 05:25:57;;;;;;;8.63;7.50;;;;;;;28.03;77.19;100715.48;1711035;82;21109;-81
2022/07/15 05:28:25;;;;;;;11.50;7.12;;;;;;;27.53;81.43;100715.45;1691075;84;21070;-82
2022/07/15 05:30:52;;;;;;;8.75;7.25;;;;;;;27.88;80.26;100712.80;1711880;82;21074;-80
2022/07/15 05:33:21;;;;;;;8.33;7.05;;;;;;;27.73;81.08;100717.97;1710692;82;21052;-80
2022/07/15 05:35:50;;;;;;;11.30;7.20;;;;;;;27.97;80.32;100715.69;1712231;82;21056;-80
2022/07/15 05:38:19;;;;;;;8.20;5.75;;;;;;;28.10;79.83;100715.59;1734070;81;21522;-80
2022/07/15 05:40:47;;;;;;;10.85;7.10;;;;;;;28.33;78.46;100720.88;1740230;80;21510;-80
2022/07/15 05:43:14;;;;;;;8.60;6.85;;;;;;;28.63;78.44;100715.17;1740389;81;21101;-80
2022/07/15 05:45:41;;;;;;;8.30;6.50;;;;;;;30.68;71.58;100721.61;1749094;81;21083;-80
2022/07/15 05:48:10;;;;;;;8.08;6.58;;;;;;;30.97;69.60;100720.27;1741499;81;21011;-82
2022/07/15 05:50:39;;;;;;;10.98;6.70;;;;;;;31.18;69.13;100716.16;1739181;82;21011;-83
2022/07/15 05:53:07;;;;;;;10.32;6.65;;;;;;;29.86;71.05;100720.30;1743229;81;21453;-82
2022/07/15 05:55:34;;;;;;;8.45;6.40;;;;;;;29.43;73.19;100721.55;1747484;81;20988;-81
2022/07/15 05:58:08;;;;;;;7.95;6.58;;;;;;;29.51;73.29;100712.16;1742374;80;21023;-79
2022/07/15 06:00:39;;;;;;;9.75;6.80;;;;;;;29.68;72.70;100714.05;1748492;81;21003;-80
2022/07/15 06:03:08;;;;;;;10.05;6.12;;;;;;;29.82;72.30;100707.60;1746697;81;21042;-81
2022/07/15 06:05:37;;;;;;;8.68;6.17;;;;;;;30.00;69.46;100715.94;1747206;81;21110;-81
2022/07/15 06:08:04;;;;;;;7.42;5.85;;;;;;;30.00;69.46;100715.94;1736465;81;20996;-81
2022/07/15 06:10:34;;;;;;;7.30;5.83;;;;;;;31.55;66.73;100711.43;1709214;82;21502;-81
2022/07/15 06:13:04;;;;;;;6.78;5.45;;;;;;;30.22;68.67;100715.42;1710420;82;21007;-81
2022/07/15 06:15:31;;;;;;;9.60;5.58;;;;;;;30.25;68.16;100716.86;1745873;81;21023;-81
2022/07/15 06:17:59;;;;;;;12.03;6.42;;;;;;;30.39;67.38;100715.16;1744578;81;21043;-81
2022/07/15 06:20:28;;;;;;;9.05;6.70;;;;;;;30.42;66.81;100710.30;1733587;81;21028;-81
2022/07/15 06:22:55;;;;;;;8.20;6.25;;;;;;;30.60;66.34;100708.48;1740141;81;20967;-82
2022/07/15 06:25:23;;;;;;;7.97;5.70;;;;;;;32.48;60.74;100712.84;1701255;83;21036;-80
2022/07/15 06:27:52;;;;;;;8.95;5.17;;;;;;;32.84;59.45;100719.53;1706983;82;21035;-80
2022/07/15 06:30:20;;;;;;;7.33;5.45;;;;;;;33.04;57.95;100714.67;1716032;82;21001;-81
2022/07/15 06:32:48;;;;;;;6.85;5.50;;;;;;;33.18;58.09;100716.28;1703962;82;21003;-81
2022/07/15 06:35:15;;;;;;;6.42;5.40;;;;;;;33.27;57.28;100718.18;1714013;82;21001;-79
2022/07/15 06:37:43;;;;;;;6.65;5.40;;;;;;;32.08;58.79;100723.51;1731772;81;21063;-79
2022/07/15 06:40:11;;;;;;;7.97;5.42;;;;;;;31.57;61.04;100717.86;1746052;81;21090;-80
2022/07/15 06:42:38;;;;;;;8.08;4.83;;;;;;;31.59;60.13;100718.47;1750774;81;21137;-80
2022/07/15 06:45:10;;;;;;;6.92;4.87;;;;;;;31.62;59.54;100718.90;1742279;81;21015;-80
2022/07/15 06:47:42;;;;;;;8.38;4.97;;;;;;;31.79;58.24;100718.52;1744188;82;21039;-79
2022/07/15 06:50:11;;;;;;;5.83;4.65;;;;;;;32.01;56.91;100713.34;1750381;81;21011;-80
2022/07/15 06:52:40;;;;;;;6.92;4.60;;;;;;;32.00;56.08;100718.38;1744739;81;21488;-80
2022/07/15 06:55:08;;;;;;;6.28;4.60;;;;;;;31.98;56.08;100716.41;1726285;82;21062;-81
2022/07/15 06:57:36;;;;;;;7.65;4.42;;;;;;;32.06;56.03;100715.42;1717840;82;21069;-81
2022/07/15 07:00:07;;;;;;;5.78;3.77;;;;;;;32.19;53.57;100715.41;1739301;81;20972;-80
2022/07/15 07:02:37;;;;;;;6.37;4.10;;;;;;;32.13;52.86;100714.38;1743690;81;21031;-80
2022/07/15 07:05:05;;;;;;;5.92;4.40;;;;;;;32.33;53.65;100713.56;1746813;81;21054;-79
2022/07/15 07:07:32;;;;;;;5.40;4.20;;;;;;;32.43;54.10;100713.15;1746819;81;21046;-79
2022/07/15 07:10:02;;;;;;;4.60;4.15;;;;;;;33.67;51.37;100718.00;1743070;81;20992;-80
2022/07/15 07:12:29;;;;;;;7.05;4.50;;;;;;;31.86;52.90;100715.37;1737868;82;21035;-80
2022/07/15 07:15:00;;;;;;;4.42;3.90;;;;;;;33.92;50.76;100715.34;1745670;82;21082;-80
2022/07/15 07:17:27;;;;;;;8.63;4.10;;;;;;;34.40;49.53;100719.30;1743627;82;21067;-78
2022/07/15 07:19:55;;;;;;;5.30;3.98;;;;;;;34.45;46.02;100714.09;1737914;82;21106;-81
2022/07/15 07:22:23;;;;;;;4.75;3.87;;;;;;;34.95;45.99;100719.88;1743127;82;21519;-79
2022/07/15 07:24:52;;;;;;;6.58;3.33;;;;;;;34.97;46.17;100719.14;1748008;81;21562;-79
2022/07/15 07:27:20;;;;;;;5.20;3.40;;;;;;;34.95;44.61;100716.68;1743072;81;21559;-79
2022/07/15 07:29:47;;;;;;;5.83;3.85;;;;;;;35.21;44.32;100718.77;1744572;81;21121;-80
2022/07/15 07:32:14;;;;;;;5.00;3.60;;;;;;;34.38;45.43;100715.51;1744864;82;21066;-79
2022/07/15 07:34:41;;;;;;;5.33;3.33;;;;;;;34.61;45.75;100714.05;1745681;82;21506;-79
2022/07/15 07:37:08;;;;;;;5.22;2.77;;;;;;;34.72;42.73;100709.34;1745159;81;21038;-78
2022/07/15 07:39:35;;;;;;;4.30;2.98;;;;;;;34.79;40.60;100706.58;1743729;81;21515;-78
2022/07/15 07:42:04;;;;;;;6.05;3.45;;;;;;;34.79;41.72;100715.42;1744255;81;21019;-79
2022/07/15 07:44:31;;;;;;;4.08;3.02;;;;;;;34.74;41.92;100704.59;1745529;81;21008;-78
2022/07/15 07:46:59;;;;;;;4.70;3.00;;;;;;;34.82;40.99;100710.97;1746053;82;21094;-78
2022/07/15 07:49:26;;;;;;;3.58;3.27;;;;;;;35.01;41.45;100706.42;1749224;82;21550;-80
2022/07/15 07:51:53;;;;;;;3.50;3.20;;;;;;;35.15;42.57;100703.59;1742327;81;21007;-79
2022/07/15 07:54:20;;;;;;;3.60;3.30;;;;;;;35.21;41.65;100704.86;1753232;81;21145;-79
2022/07/15 07:56:47;;;;;;;4.08;3.02;;;;;;;35.26;42.09;100702.84;1741590;81;21039;-79
2022/07/15 07:59:14;;;;;;;4.87;3.60;;;;;;;35.18;41.51;100703.99;1741499;82;21082;-78
2022/07/15 08:01:41;;;;;;;4.15;3.50;;;;;;;35.33;41.24;100704.11;1743657;81;21515;-79
2022/07/15 08:04:08;;;;;;;3.55;3.25;;;;;;;35.18;41.36;100701.31;1754260;81;21046;-79
2022/07/15 08:06:38;;;;;;;4.58;3.50;;;;;;;35.22;41.99;100701.16;1752790;81;21066;-79
2022/07/15 08:09:06;;;;;;;4.83;3.10;;;;;;;35.24;41.29;100699.57;1745860;81;21019;-81
2022/07/15 08:11:33;;;;;;;6.90;3.40;;;;;;;35.20;40.55;100700.56;1743908;81;21027;-78
2022/07/15 08:14:02;;;;;;;4.42;3.25;;;;;;;35.38;39.73;100698.88;1746328;81;21023;-79
2022/07/15 08:16:30;;;;;;;3.35;3.00;;;;;;;35.17;42.03;100690.30;1745686;80;21094;-80
2022/07/15 08:18:57;;;;;;;4.70;3.12;;;;;;;35.31;41.91;100692.28;1743451;81;21035;-78
2022/07/15 08:21:24;;;;;;;3.37;3.02;;;;;;;35.37;41.73;100691.37;1741928;81;21050;-79
2022/07/15 08:23:51;;;;;;;4.72;3.50;;;;;;;35.63;41.34;100684.81;1743074;81;21038;-80
2022/07/15 08:26:23;;;;;;;3.83;3.30;;;;;;;35.66;40.62;100685.70;1744616;81;21046;-80
2022/07/15 08:28:47;;;;;;;5.17;3.27;;;;;;;35.48;41.20;100673.70;1744298;81;21027;-79
2022/07/15 08:31:14;;;;;;;3.98;3.50;;;;;;;35.63;40.63;100674.10;1746420;81;21008;-78
2022/07/15 08:33:41;;;;;;;5.67;3.62;;;;;;;35.80;41.50;100676.14;1744578;81;21539;-79
2022/07/15 08:36:09;;;;;;;3.67;3.37;;;;;;;35.79;40.15;100671.31;1744297;82;21071;-80
2022/07/15 08:38:36;;;;;;;3.70;3.40;;;;;;;35.82;40.97;100670.02;1745509;81;21082;-80
2022/07/15 08:41:04;;;;;;;3.52;3.10;;;;;;;35.83;41.12;100670.30;1742435;82;21035;-81
2022/07/15 08:43:32;;;;;;;3.40;3.10;;;;;;;35.70;41.16;100670.81;1748318;81;21019;-81
2022/07/15 08:45:59;;;;;;;3.90;3.27;;;;;;;35.76;40.91;100665.59;1746174;82;21082;-81
2022/07/15 08:48:29;;;;;;;3.15;2.87;;;;;;;35.53;39.74;100669.83;1745331;81;21138;-80
2022/07/15 08:50:56;;;;;;;4.90;3.37;;;;;;;35.70;41.12;100665.45;1743689;81;21027;-80
2022/07/15 08:53:24;;;;;;;5.55;3.20;;;;;;;35.72;40.30;100667.91;1746348;81;21504;-80
2022/07/15 08:55:52;;;;;;;4.58;3.33;;;;;;;36.00;39.80;100663.22;1743551;81;21491;-80
2022/07/15 08:58:21;;;;;;;3.85;3.47;;;;;;;35.92;40.91;100667.59;1725438;82;21522;-81
2022/07/15 09:00:48;;;;;;;4.90;3.15;;;;;;;36.17;39.95;100665.23;1750832;82;21058;-80
2022/07/15 09:03:16;;;;;;;3.37;3.05;;;;;;;36.20;39.69;100664.25;1745857;81;21534;-77
2022/07/15 09:05:44;;;;;;;3.77;3.25;;;;;;;36.35;40.62;100654.91;1746000;82;21558;-77
2022/07/15 09:08:17;;;;;;;3.65;3.30;;;;;;;34.97;41.71;100654.94;1743556;81;21015;-77
2022/07/15 09:10:54;;;;;;;3.42;3.12;;;;;;;34.55;42.40;100656.93;1747744;81;21077;-79
2022/07/15 09:13:34;;;;;;;3.92;3.35;;;;;;;34.60;41.89;100656.28;1744453;81;21166;-80
2022/07/15 09:16:08;;;;;;;3.50;3.17;;;;;;;35.04;41.50;100657.83;1745684;82;21071;-80
2022/07/15 09:18:42;;;;;;;6.10;3.47;;;;;;;35.17;41.83;100656.86;1750957;81;21562;-78
2022/07/15 09:21:25;;;;;;;5.53;3.30;;;;;;;35.17;41.06;100650.70;1743845;81;20991;-80
2022/07/15 09:23:54;;;;;;;4.75;3.10;;;;;;;34.91;39.56;100647.29;1743952;82;21568;-79
2022/07/15 09:26:37;;;;;;;3.50;3.15;;;;;;;34.99;40.20;100640.81;1744668;81;21074;-80
2022/07/15 09:37:57;;;;;;;5.10;3.05;;;;;;;35.07;41.46;100635.15;1744263;81;21104;-79
2022/07/15 09:40:26;;;;;;;4.87;3.17;;;;;;;34.88;39.72;100633.85;1746118;81;21003;-80
2022/07/15 09:43:06;;;;;;;4.03;3.47;;;;;;;35.18;40.25;100628.23;1742846;81;21090;-80
2022/07/15 09:45:34;;;;;;;6.12;3.37;;;;;;;35.24;39.89;100629.99;1745464;82;21093;-79
2022/07/15 09:48:09;;;;;;;3.52;3.00;;;;;;;35.43;41.68;100629.42;1747974;82;21066;-80
2022/07/15 09:50:38;;;;;;;6.00;3.10;;;;;;;35.55;40.58;100630.78;1746935;82;21035;-80
2022/07/15 09:53:14;;;;;;;4.55;3.10;;;;;;;35.47;39.53;100629.25;1745942;81;21023;-80
2022/07/15 09:55:41;;;;;;;3.60;3.22;;;;;;;35.68;40.90;100630.59;1748749;81;21089;-79
2022/07/15 09:58:09;;;;;;;3.70;3.20;;;;;;;35.76;40.86;100624.08;1748749;81;21110;-80
2022/07/15 10:00:38;;;;;;;3.35;3.05;;;;;;;35.82;40.23;100619.14;1746602;81;21495;-79
2022/07/15 10:03:05;;;;;;;4.78;3.22;;;;;;;35.84;39.96;100621.05;1746763;81;21039;-80
2022/07/15 10:05:34;;;;;;;3.50;3.20;;;;;;;35.85;40.35;100617.31;1744413;81;21630;-80
2022/07/15 10:08:04;;;;;;;4.95;2.90;;;;;;;35.97;39.86;100618.16;1747237;82;20984;-80
2022/07/15 10:10:33;;;;;;;5.05;3.65;;;;;;;36.13;39.45;100617.14;1745859;81;20988;-80
2022/07/15 10:13:25;;;;;;;5.83;3.27;;;;;;;35.72;40.77;100620.23;1745193;81;21090;-81
2022/07/15 10:16:17;;;;;;;4.87;3.30;;;;;;;36.17;39.32;100613.78;1746498;82;21586;-80
2022/07/15 10:18:57;;;;;;;3.30;3.10;;;;;;;35.86;39.49;100604.23;1679139;82;21058;-79
2022/07/15 10:21:42;;;;;;;3.22;2.98;;;;;;;36.12;39.48;100604.81;1742653;81;21475;-78
2022/07/15 10:24:46;;;;;;;4.30;3.30;;;;;;;36.24;39.41;100602.95;1744449;82;21027;-80
2022/07/15 10:27:56;;;;;;;4.08;3.02;;;;;;;36.31;39.70;100598.27;1745346;81;21083;-80
2022/07/15 10:30:24;;;;;;;3.65;3.35;;;;;;;36.44;40.45;100596.67;1737482;82;20988;-80
2022/07/15 10:33:19;;;;;;;4.92;2.95;;;;;;;36.79;39.38;100601.12;1748593;82;21070;-81
2022/07/15 10:35:49;;;;;;;3.47;3.17;;;;;;;37.22;39.74;100597.63;1748244;81;22292;-80
2022/07/15 10:38:33;;;;;;;3.85;3.10;;;;;;;38.00;38.78;100601.79;1742731;81;21070;-79
2022/07/15 10:41:20;;;;;;;3.72;3.20;;;;;;;37.26;36.49;100596.89;1745090;81;21022;-79
2022/07/15 10:43:51;;;;;;;4.42;3.27;;;;;;;37.34;38.15;100597.56;1743163;81;21527;-80
2022/07/15 10:46:28;;;;;;;3.62;3.17;;;;;;;37.78;38.78;100599.89;1744690;82;21075;-81
2022/07/15 10:49:06;;;;;;;3.30;3.00;;;;;;;38.24;38.72;100595.17;1744088;82;21023;-81
2022/07/15 10:51:41;;;;;;;5.75;3.17;;;;;;;38.72;38.14;100594.13;1746249;82;21031;-79
2022/07/15 10:54:19;;;;;;;3.55;3.12;;;;;;;38.61;37.29;100589.72;1747544;80;20987;-81
2022/07/15 10:56:49;;;;;;;6.03;3.20;;;;;;;38.46;36.50;100589.77;1743605;81;21039;-79
2022/07/15 10:59:24;;;;;;;4.58;3.35;;;;;;;38.44;37.68;100585.71;1746440;81;21032;-79
2022/07/15 11:02:05;;;;;;;3.37;3.08;;;;;;;38.86;37.84;100590.50;1744926;80;21023;-79
2022/07/15 11:04:34;;;;;;;3.67;3.10;;;;;;;39.13;37.11;100590.50;1746416;82;21108;-79
2022/07/15 11:07:10;;;;;;;4.85;3.00;;;;;;;39.12;37.24;100584.05;1744520;81;21089;-81
2022/07/15 11:10:03;;;;;;;4.55;3.45;;;;;;;39.13;36.40;100578.39;1749490;81;21121;-80
2022/07/15 11:12:36;;;;;;;6.50;3.12;;;;;;;38.88;37.17;100577.06;1753020;81;21011;-80
2022/07/15 11:15:13;;;;;;;3.50;3.10;;;;;;;37.68;37.46;100570.19;1747394;81;21008;-79
2022/07/15 11:17:46;;;;;;;3.22;3.00;;;;;;;37.86;38.55;100567.77;1746616;81;21558;-80
2022/07/15 11:20:19;;;;;;;6.25;3.47;;;;;;;37.13;39.14;100559.64;1743550;81;21067;-81
2022/07/15 11:22:53;;;;;;;4.92;2.95;;;;;;;37.23;39.43;100567.05;1744386;81;21514;-81
2022/07/15 11:25:26;;;;;;;5.45;3.20;;;;;;;37.52;38.92;100561.59;1744623;82;21063;-80
2022/07/15 11:28:02;;;;;;;5.17;2.83;;;;;;;37.59;37.97;100558.23;1750356;82;21038;-81
2022/07/15 11:30:35;;;;;;;6.40;3.45;;;;;;;37.62;38.40;100559.89;1744267;81;21051;-82
2022/07/15 11:33:04;;;;;;;4.62;3.30;;;;;;;37.97;37.60;100566.82;1743113;81;21034;-80
2022/07/15 11:35:55;;;;;;;3.27;2.98;;;;;;;37.97;38.02;100567.36;1744454;82;21507;-80
2022/07/15 11:38:29;;;;;;;5.03;3.45;;;;;;;38.46;37.69;100566.91;1742001;81;21020;-79
2022/07/15 11:46:32;;;;;;;4.55;3.25;;;;;;;39.54;37.21;100568.49;1748800;82;21166;-80
2022/07/15 11:48:59;;;;;;;3.72;3.30;;;;;;;39.74;37.52;100567.27;1743565;81;21066;-78
2022/07/15 11:51:29;;;;;;;4.45;3.27;;;;;;;39.46;35.33;100565.23;1745673;82;21070;-80